createdAt,value
2022-12-29T00:00:27.251Z,7.64
2022-12-29T00:03:15.381Z,7.64
2022-12-29T00:05:44.767Z,7.66
2022-12-29T00:08:12.720Z,7.69
2022-12-29T00:10:40.700Z,7.70
2022-12-29T00:13:44.204Z,7.71
2022-12-29T00:16:12.312Z,7.65
2022-12-29T00:18:40.445Z,7.64
2022-12-29T00:21:33.295Z,7.63
2022-12-29T00:24:20.520Z,7.53
2022-12-29T00:27:13.265Z,7.45
2022-12-29T00:30:00.944Z,7.36
2022-12-29T00:32:47.414Z,7.27
2022-12-29T00:35:24.887Z,7.22
2022-12-29T00:38:13.307Z,7.20
2022-12-29T00:41:00.411Z,7.17
2022-12-29T00:43:47.112Z,7.16
2022-12-29T00:46:19.738Z,7.16
2022-12-29T00:49:08.698Z,7.17
2022-12-29T00:51:36.979Z,7.14
2022-12-29T00:54:04.954Z,7.13
2022-12-29T00:56:33.013Z,7.11
2022-12-29T00:59:04.388Z,7.09
2022-12-29T01:01:33.481Z,7.07
2022-12-29T01:04:04.122Z,7.02
2022-12-29T01:06:33.393Z,6.97
2022-12-29T01:09:20.259Z,6.93
2022-12-29T01:11:51.140Z,6.86
2022-12-29T01:14:20.204Z,6.81
2022-12-29T01:16:49.041Z,6.76
2022-12-29T01:19:18.879Z,6.74
2022-12-29T01:21:47.843Z,6.73
2022-12-29T01:24:17.517Z,6.72
2022-12-29T01:26:46.820Z,6.70
2022-12-29T01:29:14.829Z,6.69
2022-12-29T01:31:42.839Z,6.69
2022-12-29T01:34:10.865Z,6.67
2022-12-29T01:36:39.864Z,6.69
2022-12-29T01:39:07.907Z,6.71
2022-12-29T01:41:36.164Z,6.73
2022-12-29T01:44:59.980Z,6.75
2022-12-29T01:47:35.145Z,6.70
2022-12-29T01:50:08.071Z,6.73
2022-12-29T01:52:42.024Z,6.78
2022-12-29T01:55:12.391Z,6.84
2022-12-29T01:57:45.148Z,6.88
2022-12-29T02:00:15.377Z,6.88
2022-12-29T02:02:49.061Z,6.87
2022-12-29T02:05:38.859Z,6.87
2022-12-29T02:08:07.274Z,6.87
2022-12-29T02:10:37.551Z,6.89
2022-12-29T02:13:05.749Z,6.89
2022-12-29T02:19:27.136Z,6.91
2022-12-29T02:22:31.208Z,6.84
2022-12-29T02:24:59.188Z,6.78
2022-12-29T02:27:46.020Z,6.74
2022-12-29T02:30:19.376Z,6.72
2022-12-29T02:33:21.082Z,6.71
2022-12-29T02:36:11.476Z,6.71
2022-12-29T02:38:49.000Z,6.74
2022-12-29T02:41:33.028Z,6.80
2022-12-29T02:44:32.617Z,6.85
2022-12-29T02:47:21.631Z,6.86
2022-12-29T02:49:58.843Z,6.87
2022-12-29T02:52:33.599Z,6.91
2022-12-29T02:55:01.762Z,6.94
2022-12-29T02:57:34.339Z,7.00
2022-12-29T03:00:08.809Z,7.02
2022-12-29T03:03:04.451Z,7.02
2022-12-29T03:06:00.534Z,7.04
2022-12-29T03:08:50.856Z,7.04
2022-12-29T03:11:37.602Z,7.07
2022-12-29T03:14:41.981Z,7.10
2022-12-29T03:17:20.034Z,7.07
2022-12-29T03:19:53.683Z,7.07
2022-12-29T03:22:33.641Z,7.08
2022-12-29T03:25:40.356Z,7.08
2022-12-29T03:28:18.439Z,7.07
2022-12-29T03:30:48.345Z,7.08
2022-12-29T03:33:22.187Z,7.10
2022-12-29T03:35:55.256Z,7.14
2022-12-29T03:38:37.132Z,7.09
2022-12-29T03:41:12.736Z,7.05
2022-12-29T03:43:41.235Z,7.03
2022-12-29T03:46:09.303Z,7.04
2022-12-29T03:48:37.649Z,7.01
2022-12-29T03:51:05.759Z,7.01
2022-12-29T03:53:34.195Z,6.98
2022-12-29T03:56:02.231Z,6.98
2022-12-29T03:58:31.084Z,6.97
2022-12-29T04:01:03.592Z,6.96
2022-12-29T04:03:31.849Z,6.92
2022-12-29T04:06:00.168Z,6.89
2022-12-29T04:08:29.519Z,6.83
2022-12-29T04:10:57.649Z,6.79
2022-12-29T04:13:25.796Z,6.77
2022-12-29T04:15:53.949Z,6.73
2022-12-29T04:18:22.060Z,6.74
2022-12-29T04:21:03.835Z,6.75
2022-12-29T04:23:36.957Z,6.73
2022-12-29T04:26:08.700Z,6.71
2022-12-29T04:28:42.734Z,6.69
2022-12-29T04:31:31.594Z,6.63
2022-12-29T04:34:01.397Z,6.60
2022-12-29T04:36:30.495Z,6.61
2022-12-29T04:38:58.850Z,6.60
2022-12-29T04:41:28.874Z,6.60
2022-12-29T04:43:56.841Z,6.59
2022-12-29T04:46:43.554Z,6.54
2022-12-29T04:49:20.795Z,6.51
2022-12-29T04:52:09.585Z,6.47
2022-12-29T04:54:38.784Z,6.42
2022-12-29T04:57:12.263Z,6.40
2022-12-29T04:59:40.862Z,6.38
2022-12-29T05:02:10.059Z,6.36
2022-12-29T05:04:38.524Z,6.35
2022-12-29T05:07:06.615Z,6.35
2022-12-29T05:09:35.882Z,6.35
2022-12-29T05:12:04.396Z,6.35
2022-12-29T05:14:34.067Z,6.34
2022-12-29T05:17:02.167Z,6.33
2022-12-29T05:19:30.340Z,6.33
2022-12-29T05:21:58.333Z,6.33
2022-12-29T05:24:26.479Z,6.30
2022-12-29T05:26:56.607Z,6.33
2022-12-29T05:29:47.820Z,6.32
2022-12-29T05:32:16.222Z,6.33
2022-12-29T05:34:44.876Z,6.34
2022-12-29T05:37:13.242Z,6.35
2022-12-29T05:39:42.855Z,6.37
2022-12-29T05:42:11.566Z,6.40
2022-12-29T05:44:54.940Z,6.43
2022-12-29T05:47:41.580Z,6.41
2022-12-29T05:50:27.931Z,6.42
2022-12-29T05:53:13.422Z,6.43
2022-12-29T05:55:48.585Z,6.43
2022-12-29T05:58:18.254Z,6.45
2022-12-29T06:00:46.805Z,6.45
2022-12-29T06:03:15.039Z,6.44
2022-12-29T06:05:45.474Z,6.44
2022-12-29T06:08:13.928Z,6.43
2022-12-29T06:10:42.345Z,6.43
2022-12-29T06:13:10.777Z,6.43
2022-12-29T06:15:42.176Z,6.43
2022-12-29T06:18:16.496Z,6.42
2022-12-29T06:20:48.265Z,6.39
2022-12-29T06:23:19.737Z,6.38
2022-12-29T06:25:49.530Z,6.39
2022-12-29T06:28:18.337Z,6.39
2022-12-29T06:30:47.525Z,6.37
2022-12-29T06:33:16.599Z,6.37
2022-12-29T06:35:47.063Z,6.37
2022-12-29T06:38:16.136Z,6.38
2022-12-29T06:40:46.215Z,6.39
2022-12-29T06:43:46.424Z,6.37
2022-12-29T06:46:30.736Z,6.38
2022-12-29T06:48:58.973Z,6.38
2022-12-29T06:51:26.911Z,6.42
2022-12-29T06:53:54.909Z,6.41
2022-12-29T06:56:22.850Z,6.39
2022-12-29T06:58:51.050Z,6.39
2022-12-29T07:01:19.271Z,6.43
2022-12-29T07:03:47.613Z,6.48
2022-12-29T07:06:15.616Z,6.52
2022-12-29T07:08:43.656Z,6.59
2022-12-29T07:11:12.030Z,6.64
2022-12-29T07:13:40.087Z,6.69
2022-12-29T07:16:09.382Z,6.73
2022-12-29T07:18:37.459Z,6.75
2022-12-29T07:21:06.463Z,6.77
2022-12-29T07:23:34.384Z,6.77
2022-12-29T07:26:08.226Z,6.77
2022-12-29T07:28:37.108Z,6.72
2022-12-29T07:31:06.635Z,6.69
2022-12-29T07:33:35.197Z,6.66
2022-12-29T07:36:03.271Z,6.65
2022-12-29T07:38:31.205Z,6.65
2022-12-29T07:40:59.919Z,6.66
2022-12-29T07:43:28.621Z,6.67
2022-12-29T07:46:54.580Z,6.68
2022-12-29T07:49:02.976Z,6.68
2022-12-29T07:51:31.113Z,6.72
2022-12-29T07:54:01.342Z,6.75
2022-12-29T07:56:29.412Z,6.76
2022-12-29T07:58:57.761Z,6.79
2022-12-29T08:01:25.938Z,6.82
2022-12-29T08:03:57.275Z,6.81
2022-12-29T08:06:25.799Z,6.83
2022-12-29T08:08:53.917Z,6.86
2022-12-29T08:11:22.049Z,6.88
2022-12-29T08:13:50.528Z,6.93
2022-12-29T08:16:18.611Z,6.96
2022-12-29T08:18:46.758Z,7.00
2022-12-29T08:21:14.824Z,7.04
2022-12-29T08:23:42.929Z,7.06
2022-12-29T08:26:11.444Z,7.09
2022-12-29T08:28:39.462Z,7.15
2022-12-29T08:31:07.572Z,7.21
2022-12-29T08:33:35.684Z,7.27
2022-12-29T08:36:06.439Z,7.29
2022-12-29T08:38:35.000Z,7.33
2022-12-29T08:41:03.271Z,7.38
2022-12-29T08:43:31.770Z,7.40
2022-12-29T08:46:00.894Z,7.41
2022-12-29T08:48:29.022Z,7.42
2022-12-29T08:50:57.074Z,7.41
2022-12-29T08:53:25.297Z,7.44
2022-12-29T08:56:04.504Z,7.48
2022-12-29T08:58:35.035Z,7.50
2022-12-29T09:01:03.481Z,7.50
2022-12-29T09:04:04.237Z,7.51
2022-12-29T09:06:19.717Z,7.51
2022-12-29T09:08:47.887Z,7.54
2022-12-29T09:11:19.251Z,7.55
2022-12-29T09:13:48.147Z,7.57
2022-12-29T09:16:17.522Z,7.60
2022-12-29T09:18:46.217Z,7.63
2022-12-29T09:21:14.592Z,7.66
2022-12-29T09:23:42.656Z,7.68
2022-12-29T09:26:10.963Z,7.75
2022-12-29T09:28:39.188Z,7.83
2022-12-29T09:31:07.295Z,7.91
2022-12-29T09:33:35.575Z,8.01
2022-12-29T09:36:04.106Z,8.09
2022-12-29T09:38:32.322Z,8.19
2022-12-29T09:41:00.250Z,8.28
2022-12-29T09:43:57.522Z,8.36
2022-12-29T09:46:32.897Z,8.41
2022-12-29T09:49:17.746Z,8.51
2022-12-29T09:51:50.804Z,8.58
2022-12-29T09:54:33.812Z,8.68
2022-12-29T09:57:02.227Z,8.76
2022-12-29T09:59:46.269Z,8.83
2022-12-29T10:02:24.673Z,8.87
2022-12-29T10:04:53.121Z,8.92
2022-12-29T10:07:38.760Z,8.99
2022-12-29T10:10:31.909Z,9.07
2022-12-29T10:13:03.044Z,9.13
2022-12-29T10:15:57.863Z,9.20
2022-12-29T10:18:40.831Z,9.25
2022-12-29T10:21:38.860Z,9.31
2022-12-29T10:24:11.670Z,9.35
2022-12-29T10:26:45.209Z,9.41
2022-12-29T10:29:19.239Z,9.43
2022-12-29T10:32:11.326Z,9.45
2022-12-29T10:34:43.731Z,9.46
2022-12-29T10:37:25.445Z,9.50
2022-12-29T10:39:57.587Z,9.50
2022-12-29T10:42:35.596Z,9.54
2022-12-29T10:45:05.561Z,9.56
2022-12-29T10:47:40.613Z,9.61
2022-12-29T10:50:08.712Z,9.64
2022-12-29T10:52:40.571Z,9.68
2022-12-29T10:55:20.736Z,9.73
2022-12-29T10:57:50.085Z,9.70
2022-12-29T11:00:21.786Z,9.70
2022-12-29T11:03:24.855Z,9.72
2022-12-29T11:06:05.043Z,9.66
2022-12-29T11:08:39.432Z,9.69
2022-12-29T11:11:10.279Z,9.73
2022-12-29T11:14:00.586Z,9.78
2022-12-29T11:16:35.362Z,9.78
2022-12-29T11:19:04.103Z,9.77
2022-12-29T11:21:41.537Z,9.78
2022-12-29T11:24:28.391Z,9.77
2022-12-29T11:27:16.616Z,9.79
2022-12-29T11:29:45.819Z,9.80
2022-12-29T11:32:33.306Z,9.87
2022-12-29T11:35:02.816Z,9.82
2022-12-29T11:37:39.590Z,9.85
2022-12-29T11:40:18.196Z,9.85
2022-12-29T11:43:05.241Z,9.87
2022-12-29T11:45:36.958Z,9.83
2022-12-29T11:48:16.470Z,9.84
2022-12-29T11:50:52.509Z,9.86
2022-12-29T11:53:34.836Z,9.85
2022-12-29T11:56:10.405Z,9.84
2022-12-29T11:58:39.979Z,9.83
2022-12-29T12:01:10.981Z,9.79
2022-12-29T12:03:49.644Z,9.77
2022-12-29T12:06:22.527Z,9.74
2022-12-29T12:09:03.937Z,9.73
2022-12-29T12:11:43.195Z,9.73
2022-12-29T12:14:26.559Z,9.74
2022-12-29T12:17:26.625Z,9.71
2022-12-29T12:20:09.087Z,9.75
2022-12-29T12:22:46.536Z,9.76
2022-12-29T12:25:51.608Z,9.77
2022-12-29T12:28:47.110Z,9.76
2022-12-29T12:31:41.052Z,9.74
2022-12-29T12:34:39.886Z,9.72
2022-12-29T12:37:32.637Z,9.74
2022-12-29T12:40:32.050Z,9.71
2022-12-29T12:43:32.378Z,9.69
2022-12-29T12:46:12.456Z,9.72
2022-12-29T12:49:05.880Z,9.75
2022-12-29T12:51:36.590Z,9.75
2022-12-29T12:54:54.421Z,9.78
2022-12-29T12:57:40.900Z,9.76
2022-12-29T13:00:20.611Z,9.78
2022-12-29T13:03:06.719Z,9.80
2022-12-29T13:05:56.986Z,9.80
2022-12-29T13:08:54.239Z,9.80
2022-12-29T13:11:22.275Z,9.78
2022-12-29T13:13:55.012Z,9.82
2022-12-29T13:16:44.698Z,9.86
2022-12-29T13:19:30.452Z,9.86
2022-12-29T13:22:13.688Z,9.87
2022-12-29T13:24:47.171Z,9.85
2022-12-29T13:27:15.453Z,9.86
2022-12-29T13:30:09.768Z,9.86
2022-12-29T13:32:37.926Z,9.83
2022-12-29T13:35:12.055Z,9.84
2022-12-29T13:37:49.502Z,9.86
2022-12-29T13:40:23.592Z,9.89
2022-12-29T13:42:53.759Z,9.91
2022-12-29T13:45:27.740Z,9.96
2022-12-29T13:48:03.717Z,9.98
2022-12-29T13:50:35.500Z,9.99
2022-12-29T13:53:31.804Z,10.02
2022-12-29T13:56:09.278Z,10.01
2022-12-29T13:58:55.500Z,9.99
2022-12-29T14:01:35.385Z,9.94
2022-12-29T14:04:15.498Z,9.86
2022-12-29T14:06:47.658Z,9.84
2022-12-29T14:09:47.481Z,9.82
2022-12-29T14:12:24.380Z,9.76
2022-12-29T14:14:52.632Z,9.74
2022-12-29T14:17:22.248Z,9.69
2022-12-29T14:19:55.143Z,9.66
2022-12-29T14:22:32.939Z,9.62
2022-12-29T14:25:03.426Z,9.60
2022-12-29T14:27:31.401Z,9.58
2022-12-29T14:29:59.388Z,9.57
2022-12-29T14:32:27.327Z,9.53
2022-12-29T14:35:21.924Z,9.47
2022-12-29T14:38:17.067Z,9.35
2022-12-29T14:40:46.427Z,9.26
2022-12-29T14:43:21.872Z,9.24
2022-12-29T14:45:56.618Z,9.23
2022-12-29T14:48:43.114Z,9.25
2022-12-29T14:51:20.893Z,9.23
2022-12-29T14:53:50.651Z,9.24
2022-12-29T14:56:24.914Z,9.27
2022-12-29T14:59:00.272Z,9.27
2022-12-29T15:01:51.234Z,9.24
2022-12-29T15:04:22.954Z,9.23
2022-12-29T15:06:51.575Z,9.23
2022-12-29T15:09:34.978Z,9.21
2022-12-29T15:12:16.941Z,9.13
2022-12-29T15:15:01.732Z,9.09
2022-12-29T15:17:31.104Z,9.03
2022-12-29T15:20:01.648Z,9.01
2022-12-29T15:22:31.890Z,8.98
2022-12-29T15:25:00.120Z,8.94
2022-12-29T15:27:28.345Z,8.93
2022-12-29T15:30:02.970Z,8.92
2022-12-29T15:32:50.808Z,8.90
2022-12-29T15:35:33.075Z,8.88
2022-12-29T15:38:15.303Z,8.86
2022-12-29T15:40:46.560Z,8.83
2022-12-29T15:43:33.001Z,8.82
2022-12-29T15:46:02.835Z,8.77
2022-12-29T15:48:32.140Z,8.76
2022-12-29T15:51:01.475Z,8.73
2022-12-29T15:53:32.202Z,8.73
2022-12-29T15:56:11.402Z,8.75
2022-12-29T15:58:51.568Z,8.73
2022-12-29T16:01:32.509Z,8.73
2022-12-29T16:04:04.519Z,8.75
2022-12-29T16:06:35.920Z,8.77
2022-12-29T16:09:08.602Z,8.79
2022-12-29T16:11:41.606Z,8.79
2022-12-29T16:14:26.034Z,8.83
2022-12-29T16:16:59.547Z,8.84
2022-12-29T16:19:38.481Z,8.85
2022-12-29T16:22:18.436Z,8.82
2022-12-29T16:24:46.784Z,8.79
2022-12-29T16:27:27.756Z,8.81
2022-12-29T16:29:56.702Z,8.83
2022-12-29T16:32:32.627Z,8.82
2022-12-29T16:35:12.865Z,8.81
2022-12-29T16:37:41.029Z,8.80
2022-12-29T16:40:39.103Z,8.80
2022-12-29T16:43:21.712Z,8.78
2022-12-29T16:46:27.895Z,8.79
2022-12-29T16:48:57.926Z,8.78
2022-12-29T16:51:31.702Z,8.84
2022-12-29T16:54:01.191Z,8.87
2022-12-29T16:56:33.946Z,8.91
2022-12-29T16:59:18.650Z,8.94
2022-12-29T17:01:47.149Z,8.93
2022-12-29T17:04:15.475Z,8.93
2022-12-29T17:06:43.439Z,8.92
2022-12-29T17:09:29.630Z,8.90
2022-12-29T17:12:10.708Z,8.88
2022-12-29T17:15:13.734Z,8.88
2022-12-29T17:17:43.510Z,8.86
2022-12-29T17:20:25.339Z,8.90
2022-12-29T17:22:57.207Z,8.90
2022-12-29T17:25:33.396Z,8.91
2022-12-29T17:28:17.290Z,8.89
2022-12-29T17:30:45.570Z,8.86
2022-12-29T17:33:16.643Z,8.87
2022-12-29T17:35:47.393Z,8.89
2022-12-29T17:38:24.058Z,8.90
2022-12-29T17:40:52.433Z,8.92
2022-12-29T17:43:20.956Z,8.96
2022-12-29T17:45:56.715Z,8.98
2022-12-29T17:48:25.265Z,9.01
2022-12-29T17:50:54.423Z,9.03
2022-12-29T17:53:25.760Z,9.03
2022-12-29T17:55:54.029Z,9.03
2022-12-29T17:58:24.780Z,9.03
2022-12-29T18:00:55.912Z,9.03
2022-12-29T18:03:30.577Z,9.00
2022-12-29T18:05:59.531Z,8.98
2022-12-29T18:08:30.865Z,9.00
2022-12-29T18:10:59.195Z,8.99
2022-12-29T18:13:43.731Z,9.01
2022-12-29T18:16:14.850Z,9.00
2022-12-29T18:18:43.754Z,9.02
2022-12-29T18:21:18.401Z,9.05
2022-12-29T18:23:47.479Z,9.04
2022-12-29T18:26:31.944Z,9.06
2022-12-29T18:29:00.167Z,9.07
2022-12-29T18:31:31.901Z,9.10
2022-12-29T18:34:05.188Z,9.14
2022-12-29T18:36:33.226Z,9.17
2022-12-29T18:39:01.285Z,9.21
2022-12-29T18:41:30.208Z,9.25
2022-12-29T18:44:00.289Z,9.30
2022-12-29T18:46:30.464Z,9.36
2022-12-29T18:48:58.767Z,9.42
2022-12-29T18:51:26.920Z,9.47
2022-12-29T18:53:55.214Z,9.52
2022-12-29T18:56:24.538Z,9.55
2022-12-29T18:58:53.830Z,9.59
2022-12-29T19:01:28.340Z,9.61
2022-12-29T19:03:57.221Z,9.64
2022-12-29T19:06:25.636Z,9.67
2022-12-29T19:08:53.674Z,9.70
2022-12-29T19:11:21.738Z,9.72
2022-12-29T19:13:49.926Z,9.74
2022-12-29T19:16:21.502Z,9.75
2022-12-29T19:19:07.819Z,9.77
2022-12-29T19:21:37.868Z,9.75
2022-12-29T19:24:06.530Z,9.74
2022-12-29T19:26:37.353Z,9.75
2022-12-29T19:29:14.343Z,9.75
2022-12-29T19:31:42.937Z,9.73
2022-12-29T19:34:15.213Z,9.74
2022-12-29T19:36:45.017Z,9.76
2022-12-29T19:39:13.549Z,9.75
2022-12-29T19:41:41.736Z,9.77
2022-12-29T19:44:09.980Z,9.79
2022-12-29T19:46:38.192Z,9.82
2022-12-29T19:49:06.299Z,9.83
2022-12-29T19:51:34.395Z,9.81
2022-12-29T19:54:02.559Z,9.83
2022-12-29T19:56:31.249Z,9.86
2022-12-29T19:58:59.415Z,9.87
2022-12-29T20:01:28.025Z,9.88
2022-12-29T20:03:56.376Z,9.90
2022-12-29T20:06:24.347Z,9.91
2022-12-29T20:08:52.412Z,9.93
2022-12-29T20:11:20.611Z,9.92
2022-12-29T20:13:48.970Z,9.92
2022-12-29T20:16:19.315Z,9.90
2022-12-29T20:18:48.841Z,9.89
2022-12-29T20:21:19.723Z,9.86
2022-12-29T20:23:48.527Z,9.84
2022-12-29T20:26:19.603Z,9.83
2022-12-29T20:28:48.239Z,9.80
2022-12-29T20:31:24.226Z,9.78
2022-12-29T20:33:52.592Z,9.77
2022-12-29T20:36:25.002Z,9.77
2022-12-29T20:38:54.957Z,9.77
2022-12-29T20:41:23.823Z,9.77
2022-12-29T20:43:55.154Z,9.77
2022-12-29T20:46:29.891Z,9.77
2022-12-29T20:49:00.769Z,9.75
2022-12-29T20:51:59.172Z,9.73
2022-12-29T20:54:19.430Z,9.68
2022-12-29T20:56:47.602Z,9.68
2022-12-29T20:59:31.240Z,9.67
2022-12-29T21:01:59.444Z,9.63
2022-12-29T21:04:38.435Z,9.60
2022-12-29T21:07:19.919Z,9.53
2022-12-29T21:09:48.304Z,9.51
2022-12-29T21:12:16.372Z,9.51
2022-12-29T21:14:46.011Z,9.49
2022-12-29T21:17:14.267Z,9.49
2022-12-29T21:19:42.318Z,9.49
2022-12-29T21:22:10.385Z,9.50
2022-12-29T21:24:38.761Z,9.49
2022-12-29T21:27:06.848Z,9.49
2022-12-29T21:29:34.815Z,9.48
2022-12-29T21:32:06.407Z,9.47
2022-12-29T21:34:35.671Z,9.46
2022-12-29T21:37:03.860Z,9.46
2022-12-29T21:39:32.019Z,9.48
2022-12-29T21:42:00.431Z,9.46
2022-12-29T21:44:47.255Z,9.44
2022-12-29T21:47:15.465Z,9.41
2022-12-29T21:49:43.555Z,9.42
2022-12-29T21:52:11.607Z,9.43
2022-12-29T21:54:57.877Z,9.41
2022-12-29T21:57:44.381Z,9.36
2022-12-29T22:00:31.737Z,9.33
2022-12-29T22:03:23.120Z,9.31
2022-12-29T22:06:11.543Z,9.28
2022-12-29T22:08:58.948Z,9.28
2022-12-29T22:11:45.637Z,9.21
2022-12-29T22:14:13.793Z,9.17
2022-12-29T22:16:41.767Z,9.17
2022-12-29T22:19:11.184Z,9.18
2022-12-29T22:21:39.216Z,9.21
2022-12-29T22:24:08.902Z,9.26
2022-12-29T22:26:36.923Z,9.30
2022-12-29T22:29:05.285Z,9.33
2022-12-29T22:31:34.100Z,9.37
2022-12-29T22:34:04.487Z,9.41
2022-12-29T22:36:33.614Z,9.42
2022-12-29T22:39:01.723Z,9.42
2022-12-29T22:41:29.847Z,9.44
2022-12-29T22:43:57.914Z,9.43
2022-12-29T22:46:26.038Z,9.44
2022-12-29T22:48:54.264Z,9.46
2022-12-29T22:51:22.534Z,9.48
2022-12-29T22:53:51.532Z,9.49
2022-12-29T22:56:19.864Z,9.50
2022-12-29T22:58:48.732Z,9.49
2022-12-29T23:01:18.830Z,9.49
2022-12-29T23:03:47.151Z,9.49
2022-12-29T23:06:17.113Z,9.46
2022-12-29T23:08:46.705Z,9.44
2022-12-29T23:11:14.772Z,9.44
2022-12-29T23:13:45.281Z,9.44
2022-12-29T23:16:15.249Z,9.45
2022-12-29T23:18:44.723Z,9.45
2022-12-29T23:21:14.325Z,9.46
2022-12-29T23:23:54.663Z,9.46
2022-12-29T23:26:38.162Z,9.44
2022-12-29T23:29:09.466Z,9.44
2022-12-29T23:31:38.658Z,9.45
2022-12-29T23:34:08.529Z,9.47
2022-12-29T23:36:36.976Z,9.48
2022-12-29T23:39:05.411Z,9.49
2022-12-29T23:41:33.400Z,9.51
2022-12-29T23:44:01.475Z,9.52
2022-12-29T23:46:31.429Z,9.52
2022-12-29T23:48:59.580Z,9.54
2022-12-29T23:51:28.032Z,9.54
2022-12-29T23:53:56.105Z,9.54
2022-12-29T23:56:24.486Z,9.56
2022-12-29T23:58:53.131Z,9.57
